Time;durP1;ratioP1;P1;durP2;ratioP2;P2;SDS_P1;SDS_P2;PMS_P1;PMS_P2;Temp;Humidity;BMP_temperature;BMP_pressure;BME280_temperature;BME280_humidity;BME280_pressure;Samples;Min_cycle;Max_cycle;Signal;HPM_P1;HPM_P2
2022/11/03 00:01:50;;;;;;;61.13;58.72;;;;;;;9.56;92.79;101281.91;5023921;28;20020;-75
2022/11/03 00:04:18;;;;;;;32.17;30.67;;;;;;;9.51;93.67;101273.56;5058757;28;20033;-75
2022/11/03 00:06:45;;;;;;;35.38;34.00;;;;;;;9.45;93.91;101262.59;5058570;28;20028;-75
2022/11/03 00:09:14;;;;;;;63.00;60.17;;;;;;;9.52;94.21;101270.81;5040849;28;20082;-75
2022/11/03 00:11:40;;;;;;;30.73;29.45;;;;;;;9.56;94.00;101269.59;5042601;28;20063;-75
2022/11/03 00:14:08;;;;;;;41.90;39.97;;;;;;;9.54;94.12;101260.13;5058717;28;20075;-75
2022/11/03 00:16:35;;;;;;;50.05;48.05;;;;;;;9.46;94.04;101226.56;5038394;28;20055;-75
2022/11/03 00:19:00;;;;;;;31.92;30.23;;;;;;;9.59;94.30;101252.66;5042186;28;20184;-75
2022/11/03 00:21:26;;;;;;;33.60;31.60;;;;;;;9.57;93.91;101244.06;5042821;28;20036;-75
2022/11/03 00:23:52;;;;;;;77.57;74.57;;;;;;;9.65;93.45;101249.50;5060142;28;20073;-75
2022/11/03 00:26:29;;;;;;;25.52;24.45;;;;;;;9.66;92.74;101257.25;5045395;28;20155;-75
2022/11/03 00:28:59;;;;;;;29.25;27.90;;;;;;;9.56;93.16;101240.59;5062179;28;20426;-75
2022/11/03 00:31:30;;;;;;;25.40;23.85;;;;;;;9.69;92.51;101264.09;5059845;28;20029;-75
2022/11/03 00:33:56;;;;;;;29.80;28.55;;;;;;;9.62;93.28;101247.94;5062387;28;20028;-75
2022/11/03 00:36:23;;;;;;;33.40;31.95;;;;;;;9.66;93.31;101253.78;5061212;28;20036;-75
2022/11/03 00:38:49;;;;;;;57.03;54.85;;;;;;;9.60;93.27;101233.25;5061708;28;20115;-75
2022/11/03 00:41:15;;;;;;;22.00;20.75;;;;;;;9.74;93.36;101247.88;5061130;28;20032;-75
2022/11/03 00:43:41;;;;;;;21.92;20.98;;;;;;;9.73;92.71;101249.66;5062274;28;20124;-75
2022/11/03 00:46:07;;;;;;;25.80;24.88;;;;;;;9.69;92.35;101237.72;5058722;28;20403;-75
2022/11/03 00:48:34;;;;;;;25.65;24.70;;;;;;;9.65;92.57;101236.31;5074476;28;20034;-75
2022/11/03 00:51:14;;;;;;;28.35;26.55;;;;;;;9.54;93.24;101215.31;5041812;28;20368;-75
2022/11/03 00:53:41;;;;;;;24.70;23.33;;;;;;;9.53;93.69;101222.41;5046706;28;20933;-75
2022/11/03 00:56:10;;;;;;;26.65;25.50;;;;;;;9.56;94.12;101221.28;5061680;28;20089;-75
2022/11/03 00:58:36;;;;;;;29.00;27.65;;;;;;;9.43;93.82;101201.31;5063662;28;20173;-75
2022/11/03 01:01:06;;;;;;;42.63;40.28;;;;;;;9.37;94.06;101185.22;5057399;28;20103;-75
2022/11/03 01:03:35;;;;;;;32.88;31.52;;;;;;;9.54;93.57;101207.41;5076239;28;20035;-75
2022/11/03 01:08:45;;;;;;;27.98;26.50;;;;;;;9.51;94.11;101194.53;5075604;28;20079;-75
2022/11/03 01:14:04;;;;;;;39.42;37.92;;;;;;;9.43;94.23;101196.03;5078811;28;20470;-75
2022/11/03 01:16:30;;;;;;;28.10;26.95;;;;;;;9.40;93.87;101179.66;5062342;28;20040;-75
2022/11/03 01:18:56;;;;;;;28.42;26.92;;;;;;;9.42;93.96;101183.81;5067540;28;20373;-75
2022/11/03 01:21:21;;;;;;;36.28;34.83;;;;;;;9.43;94.81;101174.13;5065675;28;20037;-75
2022/11/03 01:23:47;;;;;;;31.73;30.30;;;;;;;9.43;93.98;101153.06;5065856;28;20105;-75
2022/11/03 01:26:13;;;;;;;28.15;27.02;;;;;;;9.44;93.99;101154.72;5056146;28;20082;-75
2022/11/03 01:28:40;;;;;;;37.83;36.28;;;;;;;9.42;93.55;101148.75;5045783;28;20047;-75
2022/11/03 01:31:10;;;;;;;29.63;28.48;;;;;;;9.33;94.20;101139.03;5062812;28;20028;-75
2022/11/03 01:33:36;;;;;;;39.80;38.00;;;;;;;9.32;93.83;101135.56;5061835;28;20114;-76
2022/11/03 01:36:01;;;;;;;38.22;36.45;;;;;;;9.36;94.95;101157.19;5062084;28;20037;-75
2022/11/03 01:38:30;;;;;;;33.05;31.85;;;;;;;9.34;95.05;101144.16;5044933;28;20024;-75
2022/11/03 01:40:56;;;;;;;31.52;30.08;;;;;;;9.26;94.29;101147.47;5063026;28;20036;-75
2022/11/03 01:43:22;;;;;;;32.67;30.88;;;;;;;9.37;94.28;101154.44;5043391;28;20093;-75
2022/11/03 01:46:05;;;;;;;37.33;35.15;;;;;;;9.40;93.67;101140.97;5060229;28;20047;-75
2022/11/03 01:48:33;;;;;;;44.92;43.28;;;;;;;9.33;94.56;101129.31;5061417;28;20024;-75
2022/11/03 01:51:00;;;;;;;40.33;38.17;;;;;;;9.27;94.25;101130.69;5063488;28;20380;-75
2022/11/03 01:53:28;;;;;;;45.40;43.60;;;;;;;9.41;93.76;101139.19;5044413;28;20481;-75
2022/11/03 01:55:54;;;;;;;39.35;37.72;;;;;;;9.41;94.63;101140.03;5060301;28;20044;-75
2022/11/03 01:58:28;;;;;;;37.58;35.92;;;;;;;9.41;93.87;101139.19;5061436;28;20041;-75
2022/11/03 02:00:58;;;;;;;62.78;60.30;;;;;;;9.34;94.02;101127.50;5060531;28;20032;-75
2022/11/03 02:03:25;;;;;;;31.42;30.17;;;;;;;9.38;94.09;101129.72;5062368;28;20062;-76
2022/11/03 02:05:52;;;;;;;55.22;52.67;;;;;;;9.48;93.29;101129.78;5046288;28;20029;-76
2022/11/03 02:08:24;;;;;;;43.95;41.10;;;;;;;9.43;93.76;101127.53;5059045;28;20052;-75
2022/11/03 02:10:50;;;;;;;31.08;29.38;;;;;;;9.42;93.69;101120.59;5064208;28;20032;-75
2022/11/03 02:13:23;;;;;;;34.85;33.35;;;;;;;9.30;94.30;101111.16;5062533;28;20393;-75
2022/11/03 02:15:52;;;;;;;44.72;42.65;;;;;;;9.23;95.21;101089.81;5061597;28;20093;-75
2022/11/03 02:18:21;;;;;;;54.80;52.45;;;;;;;9.35;95.68;101118.66;5062968;28;20032;-75
2022/11/03 02:20:54;;;;;;;38.15;36.53;;;;;;;9.34;94.84;101120.47;5061944;28;20035;-76
2022/11/03 02:23:32;;;;;;;36.35;34.95;;;;;;;9.25;95.78;101100.19;5044859;28;21611;-75
2022/11/03 02:25:59;;;;;;;36.88;34.83;;;;;;;9.31;96.39;101099.63;5049451;28;20032;-75
2022/11/03 02:28:28;;;;;;;57.45;55.35;;;;;;;9.29;96.47;101114.75;5061578;28;20107;-76
2022/11/03 02:31:15;;;;;;;38.28;36.65;;;;;;;9.26;96.17;101102.69;5061459;28;20492;-75
2022/11/03 02:33:51;;;;;;;42.67;39.90;;;;;;;9.15;96.58;101091.44;5061256;28;20095;-75
2022/11/03 02:36:36;;;;;;;40.55;38.97;;;;;;;9.29;96.34;101113.91;5041603;28;20079;-75
2022/11/03 02:39:13;;;;;;;38.40;36.90;;;;;;;9.30;97.35;101111.16;5061408;28;20463;-75
2022/11/03 02:41:40;;;;;;;58.00;55.08;;;;;;;9.31;97.28;101106.72;5061619;28;20024;-76
2022/11/03 02:44:13;;;;;;;51.80;49.63;;;;;;;9.25;96.77;101094.91;5063613;28;20081;-75
2022/11/03 02:46:42;;;;;;;56.20;54.15;;;;;;;9.10;97.98;101060.22;5059419;28;20024;-76
2022/11/03 02:49:07;;;;;;;55.10;52.72;;;;;;;9.13;98.35;101067.03;5042934;28;20036;-75
2022/11/03 02:51:33;;;;;;;66.55;63.85;;;;;;;9.04;98.29;101068.69;5026225;28;20055;-75
2022/11/03 02:54:14;;;;;;;60.53;58.10;;;;;;;9.14;99.10;101079.22;5042981;28;20491;-75
2022/11/03 02:56:47;;;;;;;83.03;79.93;;;;;;;9.07;98.52;101068.41;5060629;28;20025;-75
2022/11/03 02:59:17;;;;;;;57.05;54.97;;;;;;;9.15;99.05;101079.09;5059658;28;20545;-75
2022/11/03 03:01:55;;;;;;;55.67;53.58;;;;;;;9.20;98.18;101076.06;5043887;28;20107;-75
2022/11/03 03:04:37;;;;;;;66.50;63.95;;;;;;;9.06;99.08;101059.69;5062942;28;20085;-75
2022/11/03 03:07:23;;;;;;;61.55;58.42;;;;;;;9.22;98.60;101076.75;5060994;28;20518;-75
2022/11/03 03:10:00;;;;;;;83.45;79.93;;;;;;;9.08;98.72;101051.66;5042568;28;20036;-76
2022/11/03 03:12:27;;;;;;;59.38;57.10;;;;;;;9.24;99.38;101072.19;5041754;28;20029;-76
2022/11/03 03:14:55;;;;;;;59.83;57.65;;;;;;;9.28;98.76;101078.84;5044923;28;20109;-75
2022/11/03 03:17:48;;;;;;;64.28;61.97;;;;;;;9.30;98.16;101073.44;5063290;28;20028;-75
2022/11/03 03:20:21;;;;;;;58.30;55.97;;;;;;;9.33;98.29;101079.28;5037391;28;20040;-75
2022/11/03 03:22:50;;;;;;;49.65;47.75;;;;;;;9.33;99.21;101068.72;5062745;28;20032;-75
2022/11/03 03:25:33;;;;;;;64.25;61.63;;;;;;;9.32;99.24;101061.81;5048446;28;20040;-75
2022/11/03 03:28:11;;;;;;;63.47;60.25;;;;;;;9.31;99.41;101057.50;5070180;28;20036;-75
2022/11/03 03:30:39;;;;;;;67.85;64.97;;;;;;;9.27;99.16;101051.66;5064482;28;20035;-75
2022/11/03 03:33:06;;;;;;;61.40;59.00;;;;;;;9.33;98.85;101058.19;5063177;28;20383;-75
2022/11/03 03:35:35;;;;;;;71.55;69.03;;;;;;;9.38;99.53;101048.06;5064938;28;20154;-76
2022/11/03 03:38:06;;;;;;;67.35;64.88;;;;;;;9.43;99.27;101061.69;5062971;28;20035;-74
2022/11/03 03:40:37;;;;;;;65.10;62.65;;;;;;;9.43;98.79;101042.41;5046933;28;20033;-74
2022/11/03 03:43:07;;;;;;;56.85;54.75;;;;;;;9.48;98.30;101046.28;5064172;28;20040;-76
2022/11/03 03:45:33;;;;;;;58.03;55.70;;;;;;;9.36;99.07;101028.94;5064656;28;20028;-74
2022/11/03 03:48:00;;;;;;;57.88;55.53;;;;;;;9.50;99.68;101037.44;5048163;28;20097;-76
2022/11/03 03:50:29;;;;;;;89.80;85.57;;;;;;;9.43;99.40;101027.44;5032180;28;20381;-74
2022/11/03 03:53:03;;;;;;;72.30;69.65;;;;;;;9.51;99.85;101029.38;5045286;28;20101;-74
2022/11/03 03:55:34;;;;;;;59.58;57.42;;;;;;;9.47;99.25;101034.09;5058749;28;20130;-74
2022/11/03 03:58:00;;;;;;;63.75;61.35;;;;;;;9.47;99.97;101022.69;5032188;28;20036;-74
2022/11/03 04:00:25;;;;;;;70.03;67.20;;;;;;;9.30;100.00;101003.19;5012948;28;20093;-74
2022/11/03 04:02:50;;;;;;;64.30;61.10;;;;;;;9.41;100.00;101023.28;5044939;28;20028;-74
2022/11/03 04:05:16;;;;;;;66.80;63.88;;;;;;;9.46;100.00;101027.16;5041620;28;20044;-74
2022/11/03 04:07:47;;;;;;;67.00;64.50;;;;;;;9.43;100.00;101027.44;5058782;28;20029;-74
2022/11/03 04:10:20;;;;;;;62.45;59.72;;;;;;;9.43;100.00;101008.19;5055449;28;20112;-74
2022/11/03 04:23:44;;;;;;;55.90;53.78;;;;;;;9.21;100.00;100964.47;5061127;28;20047;-77
2022/11/03 04:26:22;;;;;;;111.13;107.05;;;;;;;9.42;100.00;100988.06;5062541;28;20036;-75
2022/11/03 04:28:49;;;;;;;73.28;70.28;;;;;;;9.38;100.00;100995.38;5058472;28;20033;-76
2022/11/03 04:31:16;;;;;;;64.18;61.65;;;;;;;9.36;100.00;100989.44;5064344;28;20090;-76
2022/11/03 04:33:43;;;;;;;68.28;65.72;;;;;;;9.28;100.00;100970.88;5048502;28;20471;-75
2022/11/03 04:36:20;;;;;;;75.85;73.07;;;;;;;9.39;100.00;100983.06;5057079;28;20793;-76
2022/11/03 04:38:46;;;;;;;65.55;62.72;;;;;;;9.36;100.00;100994.69;5068278;28;20054;-75
2022/11/03 04:41:16;;;;;;;72.35;69.63;;;;;;;9.38;100.00;100981.41;5046141;28;20028;-75
2022/11/03 04:43:44;;;;;;;74.88;71.97;;;;;;;9.36;100.00;100978.88;5047759;28;20032;-76
2022/11/03 04:46:15;;;;;;;70.07;66.75;;;;;;;9.35;100.00;100971.97;5062407;28;20433;-75
2022/11/03 04:48:42;;;;;;;75.20;72.47;;;;;;;9.35;100.00;100971.97;5045632;28;20028;-75
2022/11/03 04:51:28;;;;;;;91.22;87.90;;;;;;;9.22;100.00;100956.44;5047795;28;20025;-75
2022/11/03 04:53:58;;;;;;;76.40;73.55;;;;;;;9.29;100.00;100962.00;5064095;28;20077;-75
2022/11/03 04:56:24;;;;;;;73.30;70.13;;;;;;;9.31;100.00;100964.50;5062965;28;20052;-76
2022/11/03 04:58:51;;;;;;;89.40;86.00;;;;;;;9.29;100.00;100961.16;5063068;28;20452;-76
2022/11/03 05:01:20;;;;;;;74.18;71.35;;;;;;;9.25;100.00;100961.44;5043226;28;20029;-76
2022/11/03 05:03:48;;;;;;;80.78;77.82;;;;;;;9.29;100.00;100955.91;5062907;28;20395;-76
2022/11/03 05:06:19;;;;;;;80.10;76.53;;;;;;;9.24;100.00;100949.25;5059856;28;20028;-76
2022/11/03 05:08:49;;;;;;;80.78;77.70;;;;;;;9.20;100.00;100936.50;5064478;28;20032;-76
2022/11/03 05:11:38;;;;;;;93.55;90.25;;;;;;;9.33;100.00;100960.75;5044451;28;20406;-77
2022/11/03 05:14:29;;;;;;;73.78;70.95;;;;;;;9.34;100.00;100954.53;5061156;28;20044;-75
2022/11/03 05:16:55;;;;;;;75.88;73.00;;;;;;;9.32;100.00;100961.72;5030184;28;20032;-76
2022/11/03 05:19:25;;;;;;;88.30;84.28;;;;;;;9.33;100.00;100947.56;5027396;28;20025;-75
2022/11/03 05:21:52;;;;;;;68.55;65.97;;;;;;;9.33;100.00;100955.47;5061335;28;21051;-75
2022/11/03 05:24:20;;;;;;;77.43;74.60;;;;;;;9.28;100.00;100960.34;5060696;28;20157;-76
2022/11/03 05:26:45;;;;;;;78.88;75.65;;;;;;;9.23;100.00;100946.72;5061379;28;20028;-75
2022/11/03 05:29:21;;;;;;;75.65;72.80;;;;;;;9.20;100.00;100936.50;5061528;28;20480;-76
2022/11/03 05:31:47;;;;;;;78.03;75.18;;;;;;;9.13;100.00;100933.59;5061366;28;20111;-76
2022/11/03 05:34:36;;;;;;;71.50;68.57;;;;;;;9.22;100.00;100950.34;5029197;28;20134;-76
2022/11/03 05:37:04;;;;;;;71.60;68.75;;;;;;;9.22;100.00;100956.44;5064576;28;20503;-77
2022/11/03 05:39:39;;;;;;;74.50;71.50;;;;;;;9.18;100.00;100944.53;5057855;28;22320;-76
2022/11/03 05:42:19;;;;;;;82.20;79.00;;;;;;;9.18;100.00;100954.22;5042663;28;20043;-75
2022/11/03 05:44:45;;;;;;;67.60;65.10;;;;;;;9.10;100.00;100938.28;5061661;28;20764;-75
2022/11/03 05:47:17;;;;;;;72.22;69.20;;;;;;;9.17;100.00;100940.25;5063711;28;20032;-75
2022/11/03 05:49:42;;;;;;;75.88;72.97;;;;;;;9.17;100.00;100928.88;5057827;28;20028;-76
2022/11/03 05:52:14;;;;;;;89.65;86.07;;;;;;;9.15;100.00;100930.81;5062228;28;20904;-76
2022/11/03 05:54:40;;;;;;;69.78;66.95;;;;;;;9.13;100.00;100923.06;5060821;28;20131;-75
2022/11/03 05:57:17;;;;;;;77.40;74.13;;;;;;;9.05;100.00;100918.47;5064780;28;20115;-75
2022/11/03 05:59:44;;;;;;;70.00;67.45;;;;;;;9.10;100.00;100920.69;5064609;28;20052;-75
2022/11/03 06:02:34;;;;;;;84.03;80.82;;;;;;;9.11;100.00;100921.53;5052854;28;20849;-75
2022/11/03 06:05:02;;;;;;;74.65;71.65;;;;;;;9.06;100.00;100920.13;5062711;28;20518;-75
2022/11/03 06:07:30;;;;;;;69.03;66.45;;;;;;;9.05;100.00;100915.00;5063950;28;20029;-74
2022/11/03 06:09:57;;;;;;;74.00;71.22;;;;;;;8.97;100.00;100913.06;5064213;28;20043;-75
2022/11/03 06:12:24;;;;;;;75.55;72.65;;;;;;;9.02;100.00;100921.38;5072369;28;20016;-75
2022/11/03 06:14:50;;;;;;;76.97;73.55;;;;;;;9.03;100.00;100922.22;5051156;28;20049;-76
2022/11/03 06:17:22;;;;;;;83.38;80.10;;;;;;;9.01;100.00;100916.25;5038750;28;20048;-74
2022/11/03 06:19:51;;;;;;;83.75;80.53;;;;;;;8.93;100.00;100908.19;5048615;28;20416;-75
2022/11/03 06:22:16;;;;;;;82.03;78.82;;;;;;;9.01;100.00;100913.63;5052134;28;20028;-76
2022/11/03 06:24:42;;;;;;;90.80;86.88;;;;;;;9.00;100.00;100918.06;5053516;28;20035;-74
2022/11/03 06:27:13;;;;;;;84.50;81.05;;;;;;;8.91;100.00;100895.19;5046524;28;20041;-75
2022/11/03 06:29:39;;;;;;;74.97;72.25;;;;;;;8.95;100.00;100909.75;5043838;28;20029;-74
2022/11/03 06:32:11;;;;;;;84.93;81.53;;;;;;;8.85;100.00;100890.47;5047075;28;20039;-74
2022/11/03 06:34:43;;;;;;;82.88;78.75;;;;;;;8.92;100.00;100901.28;5049546;28;20052;-74
2022/11/03 06:37:24;;;;;;;76.07;72.90;;;;;;;8.82;100.00;100874.97;5053085;28;20036;-74
2022/11/03 06:39:53;;;;;;;93.38;88.38;;;;;;;8.90;100.00;100880.34;5047183;28;20127;-74
2022/11/03 06:42:21;;;;;;;84.93;81.57;;;;;;;8.85;100.00;100870.25;5058286;28;20021;-74
2022/11/03 06:44:48;;;;;;;77.38;74.43;;;;;;;8.91;100.00;100873.31;5054771;28;20457;-75
2022/11/03 06:47:25;;;;;;;105.65;101.40;;;;;;;8.97;100.00;100873.59;5051292;28;20029;-74
2022/11/03 06:49:56;;;;;;;103.25;99.50;;;;;;;9.07;100.00;100884.09;5045430;28;20445;-76
2022/11/03 06:52:33;;;;;;;84.50;81.35;;;;;;;9.00;100.00;100877.75;5045949;28;20388;-75
2022/11/03 06:55:08;;;;;;;92.20;88.32;;;;;;;9.06;100.00;100883.28;5049089;28;20033;-74
2022/11/03 06:57:37;;;;;;;76.85;74.00;;;;;;;9.01;100.00;100867.06;5044675;28;20087;-74
2022/11/03 07:00:23;;;;;;;106.93;103.15;;;;;;;9.06;100.00;100862.22;5058426;28;20530;-75
2022/11/03 07:03:09;;;;;;;90.10;86.63;;;;;;;9.13;100.00;100875.66;5043223;28;20036;-74
2022/11/03 07:05:36;;;;;;;89.45;85.93;;;;;;;9.18;100.00;100862.06;5037857;28;20035;-74
2022/11/03 07:08:22;;;;;;;76.20;73.28;;;;;;;9.25;100.00;100871.06;5052649;28;20029;-74
2022/11/03 07:10:49;;;;;;;98.75;94.57;;;;;;;9.25;100.00;100869.28;5049659;28;20036;-74
2022/11/03 07:13:21;;;;;;;93.25;89.55;;;;;;;9.30;100.00;100860.09;5051017;28;20685;-74
2022/11/03 07:15:46;;;;;;;73.68;70.95;;;;;;;9.33;100.00;100858.03;5053978;28;20060;-74
2022/11/03 07:18:21;;;;;;;79.18;76.18;;;;;;;9.40;100.00;100853.84;5048185;28;20506;-74
2022/11/03 07:20:47;;;;;;;59.38;57.10;;;;;;;9.46;100.00;100858.53;5048577;28;20040;-75
2022/11/03 07:23:18;;;;;;;64.55;61.55;;;;;;;9.53;100.00;100860.63;5035939;28;20040;-76
2022/11/03 07:25:48;;;;;;;59.85;57.15;;;;;;;9.55;100.00;100856.03;5051009;28;20397;-75
2022/11/03 07:28:14;;;;;;;53.15;50.30;;;;;;;9.61;100.00;100844.94;5053197;28;20027;-75
2022/11/03 07:30:39;;;;;;;49.75;47.75;;;;;;;9.67;100.00;100857.53;5054885;28;20477;-75
2022/11/03 07:33:15;;;;;;;52.50;50.35;;;;;;;9.71;100.00;100853.59;5045721;28;20526;-74
2022/11/03 07:35:43;;;;;;;59.22;57.00;;;;;;;9.79;100.00;100856.34;5050938;28;20127;-74
2022/11/03 07:38:16;;;;;;;47.65;45.95;;;;;;;9.70;100.00;100828.25;5051678;28;20033;-73
2022/11/03 07:40:42;;;;;;;49.95;48.03;;;;;;;9.83;100.00;100839.28;5057436;28;20032;-74
2022/11/03 07:43:37;;;;;;;44.08;42.38;;;;;;;9.99;100.00;100843.09;5054584;28;20041;-74
2022/11/03 07:46:03;;;;;;;46.83;44.83;;;;;;;9.90;100.00;100807.91;5038849;28;20039;-74
2022/11/03 07:48:52;;;;;;;37.67;36.13;;;;;;;10.19;100.00;100833.28;5055857;28;20027;-75
2022/11/03 07:51:28;;;;;;;37.15;35.15;;;;;;;10.19;100.00;100820.94;5053451;28;20025;-75
2022/11/03 07:54:38;;;;;;;29.95;28.67;;;;;;;10.27;99.93;100821.00;5054957;28;20040;-75
2022/11/03 07:57:10;;;;;;;27.38;25.88;;;;;;;10.24;100.00;100810.75;5046950;28;20064;-74
2022/11/03 07:59:44;;;;;;;35.30;33.83;;;;;;;10.39;100.00;100815.56;5057633;28;20017;-74
2022/11/03 08:02:32;;;;;;;34.03;32.55;;;;;;;10.51;99.04;100832.81;5053276;28;20071;-74
2022/11/03 08:04:58;;;;;;;32.50;30.92;;;;;;;10.54;99.66;100822.00;5055120;28;20075;-74
2022/11/03 08:07:24;;;;;;;39.28;37.45;;;;;;;10.63;99.33;100820.25;5069794;28;20033;-75
2022/11/03 08:09:50;;;;;;;44.25;42.63;;;;;;;10.66;99.74;100815.47;5055557;28;20028;-75
2022/11/03 08:12:15;;;;;;;30.63;29.30;;;;;;;10.73;99.08;100812.25;5054348;28;20048;-74
2022/11/03 08:14:41;;;;;;;27.27;26.27;;;;;;;10.81;99.51;100822.88;5074041;28;20181;-75
2022/11/03 08:17:06;;;;;;;29.40;27.88;;;;;;;10.83;98.37;100818.28;5057316;28;20437;-75
2022/11/03 08:19:32;;;;;;;26.80;25.75;;;;;;;10.88;99.38;100813.38;5053689;28;20155;-75
2022/11/03 08:21:57;;;;;;;24.75;23.80;;;;;;;10.84;98.63;100810.22;5053698;28;20055;-75
2022/11/03 08:24:22;;;;;;;27.45;26.33;;;;;;;10.75;99.30;100782.06;5041320;28;20499;-75
2022/11/03 08:26:48;;;;;;;28.38;27.17;;;;;;;10.93;98.77;100810.25;5057458;28;20787;-75
2022/11/03 08:29:13;;;;;;;29.83;28.38;;;;;;;10.95;98.85;100803.00;5073155;28;20039;-75
2022/11/03 08:31:39;;;;;;;25.42;24.25;;;;;;;10.94;99.12;100799.56;5075754;28;20024;-75
2022/11/03 08:34:04;;;;;;;33.38;31.77;;;;;;;10.91;98.83;100791.94;5072980;28;20162;-75
2022/11/03 08:36:29;;;;;;;29.27;28.02;;;;;;;10.83;100.00;100768.94;5068291;28;20036;-74
2022/11/03 08:38:55;;;;;;;25.35;24.30;;;;;;;11.02;100.00;100782.94;5049435;28;20037;-75
2022/11/03 08:41:20;;;;;;;24.85;23.80;;;;;;;11.16;99.45;100781.56;5066655;28;20033;-74
2022/11/03 08:43:45;;;;;;;28.35;26.92;;;;;;;11.23;99.33;100770.19;5049666;28;20043;-75
2022/11/03 08:46:11;;;;;;;24.55;23.15;;;;;;;11.39;98.83;100761.53;5048735;28;20103;-74
2022/11/03 08:48:36;;;;;;;20.73;19.80;;;;;;;11.72;97.79;100774.91;5049915;28;20040;-74
2022/11/03 08:51:01;;;;;;;17.27;16.30;;;;;;;11.93;96.29;100775.34;5064008;28;20090;-74
2022/11/03 08:53:27;;;;;;;14.68;13.80;;;;;;;12.12;95.17;100755.72;5069603;28;20549;-74
2022/11/03 08:55:53;;;;;;;30.25;28.08;;;;;;;12.37;94.55;100752.28;5046330;28;20028;-75
2022/11/03 08:58:20;;;;;;;16.08;14.93;;;;;;;12.66;92.86;100749.97;5066125;28;20034;-75
2022/11/03 09:00:45;;;;;;;9.15;8.55;;;;;;;12.85;91.27;100756.75;5047514;28;20217;-75
2022/11/03 09:03:10;;;;;;;8.63;7.93;;;;;;;12.85;91.57;100753.28;5047675;28;20040;-75
2022/11/03 09:05:36;;;;;;;8.88;8.20;;;;;;;13.11;90.34;100755.72;5063468;28;20169;-75
2022/11/03 09:08:01;;;;;;;7.53;5.80;;;;;;;13.16;89.63;100730.38;5043900;28;20056;-75
2022/11/03 09:10:27;;;;;;;5.15;4.70;;;;;;;13.51;88.19;100752.16;5047776;28;20035;-75
2022/11/03 09:12:54;;;;;;;6.65;4.70;;;;;;;13.51;87.86;100762.75;5057701;28;20072;-75
2022/11/03 09:15:19;;;;;;;9.30;6.57;;;;;;;13.15;89.06;100755.22;5060175;28;20049;-75
2022/11/03 09:17:44;;;;;;;4.57;4.13;;;;;;;13.02;89.70;100754.06;5048516;28;20074;-75
2022/11/03 09:20:10;;;;;;;6.75;6.38;;;;;;;12.91;90.75;100757.91;5068090;28;20059;-75
2022/11/03 09:22:35;;;;;;;9.45;7.45;;;;;;;12.69;91.33;100739.03;5068570;28;20039;-75
2022/11/03 09:25:01;;;;;;;17.40;16.55;;;;;;;12.43;91.91;100733.91;5040817;28;20443;-75
2022/11/03 09:27:27;;;;;;;8.93;8.13;;;;;;;12.47;93.02;100747.66;5069980;28;20024;-74
2022/11/03 09:29:52;;;;;;;12.75;11.85;;;;;;;12.50;93.66;100731.47;5049590;28;20043;-75
2022/11/03 09:32:18;;;;;;;12.50;11.57;;;;;;;12.60;94.04;100737.41;5052112;28;20028;-75
2022/11/03 09:34:43;;;;;;;10.95;10.13;;;;;;;12.53;93.92;100731.13;5067645;28;20114;-75
2022/11/03 09:37:09;;;;;;;18.52;17.65;;;;;;;12.53;94.44;100733.75;5071722;28;20042;-74
2022/11/03 09:39:34;;;;;;;14.13;13.18;;;;;;;12.48;93.60;100717.56;5068608;28;20056;-75
2022/11/03 09:42:02;;;;;;;16.05;15.27;;;;;;;12.62;94.12;100716.88;5048014;28;20573;-74
2022/11/03 09:44:27;;;;;;;20.52;19.20;;;;;;;12.71;92.37;100723.81;5038392;28;20514;-75
2022/11/03 09:46:53;;;;;;;18.40;17.08;;;;;;;12.82;92.66;100709.41;5067936;28;20028;-75
2022/11/03 09:49:20;;;;;;;19.27;17.52;;;;;;;12.84;92.59;100707.41;5071613;28;20503;-75
2022/11/03 09:51:45;;;;;;;17.52;16.63;;;;;;;12.94;92.64;100707.25;5048393;28;20103;-75
2022/11/03 09:54:14;;;;;;;16.75;15.32;;;;;;;12.86;93.22;100718.66;5060849;28;20201;-76
2022/11/03 09:56:40;;;;;;;17.35;15.80;;;;;;;12.84;93.39;100703.94;5051105;28;20044;-75
2022/11/03 09:59:14;;;;;;;13.95;12.88;;;;;;;12.99;92.48;100693.50;5062897;28;20967;-75
2022/11/03 10:01:40;;;;;;;14.15;13.00;;;;;;;13.10;91.87;100688.66;5066728;28;20024;-74
2022/11/03 10:04:10;;;;;;;13.90;12.80;;;;;;;13.01;91.94;100678.25;5075309;28;20403;-75
2022/11/03 10:06:36;;;;;;;11.15;10.52;;;;;;;13.11;91.56;100682.38;5072559;28;20128;-75
2022/11/03 10:09:01;;;;;;;12.57;12.05;;;;;;;13.29;92.00;100681.34;5056744;28;20118;-77
2022/11/03 10:11:27;;;;;;;23.27;21.63;;;;;;;13.22;92.03;100675.03;5075073;28;20028;-76
2022/11/03 10:13:55;;;;;;;13.77;12.77;;;;;;;13.29;92.25;100679.50;5075921;28;20085;-76
2022/11/03 10:16:23;;;;;;;12.60;11.60;;;;;;;13.16;91.50;100645.56;5069924;28;20031;-76
2022/11/03 10:18:49;;;;;;;15.25;14.35;;;;;;;13.42;90.95;100668.34;5072652;28;20125;-75
2022/11/03 10:21:18;;;;;;;13.32;12.27;;;;;;;13.51;90.23;100672.63;5024683;28;20475;-76
2022/11/03 10:23:43;;;;;;;16.08;14.98;;;;;;;13.67;89.93;100662.91;5073960;28;20020;-75
2022/11/03 10:26:10;;;;;;;13.50;12.80;;;;;;;13.84;89.43;100656.50;5052493;28;20035;-75
2022/11/03 10:28:36;;;;;;;14.35;13.55;;;;;;;13.88;88.55;100657.81;5057359;28;20495;-75
2022/11/03 10:31:08;;;;;;;10.50;9.38;;;;;;;13.87;88.73;100645.56;5058375;28;20021;-75
2022/11/03 10:34:00;;;;;;;9.48;8.70;;;;;;;13.83;89.06;100644.28;5055286;28;20499;-75
2022/11/03 10:36:32;;;;;;;10.07;9.43;;;;;;;13.78;88.40;100631.53;5069526;28;20115;-75
2022/11/03 10:39:00;;;;;;;7.53;7.22;;;;;;;13.73;89.48;100630.41;5073600;28;20031;-75
2022/11/03 10:41:30;;;;;;;12.35;11.73;;;;;;;13.66;90.39;100626.81;5074343;28;20476;-75
2022/11/03 10:43:59;;;;;;;15.45;11.43;;;;;;;13.73;90.55;100633.06;5073918;28;20480;-75
2022/11/03 10:46:26;;;;;;;12.60;11.88;;;;;;;13.53;90.94;100627.38;5071902;28;20024;-76
2022/11/03 10:49:18;;;;;;;13.27;12.30;;;;;;;13.63;91.73;100620.03;5073637;28;20043;-77
2022/11/03 10:51:48;;;;;;;13.30;12.45;;;;;;;13.64;91.95;100607.59;5067952;28;20484;-77
2022/11/03 10:54:17;;;;;;;15.10;14.32;;;;;;;13.77;91.37;100619.25;5074501;28;20043;-75
2022/11/03 10:56:43;;;;;;;18.75;17.45;;;;;;;13.87;90.45;100605.78;5071835;28;20480;-75
2022/11/03 10:59:21;;;;;;;14.68;13.73;;;;;;;13.84;90.08;100608.75;5071000;28;20478;-75
2022/11/03 11:01:46;;;;;;;14.20;13.40;;;;;;;13.89;90.83;100585.22;5046773;28;20093;-75
2022/11/03 11:04:16;;;;;;;11.15;10.27;;;;;;;13.92;89.77;100594.63;5040401;28;20040;-76
2022/11/03 11:06:42;;;;;;;11.38;10.63;;;;;;;14.36;89.06;100585.94;5059043;28;20036;-75
2022/11/03 11:09:26;;;;;;;11.15;10.32;;;;;;;14.74;87.79;100576.09;5045027;28;20047;-75
2022/11/03 11:12:14;;;;;;;7.75;6.97;;;;;;;14.61;86.71;100567.94;5075283;28;20365;-75
2022/11/03 11:14:50;;;;;;;7.30;5.47;;;;;;;14.57;87.01;100546.25;5074831;28;20041;-75
2022/11/03 11:17:38;;;;;;;9.07;5.68;;;;;;;14.33;87.58;100557.94;5036542;28;20504;-75
2022/11/03 11:20:27;;;;;;;6.50;6.05;;;;;;;14.31;88.41;100551.16;5066926;28;20948;-75
2022/11/03 11:22:52;;;;;;;7.10;6.50;;;;;;;14.32;88.84;100543.00;5062926;28;20028;-76
2022/11/03 11:25:18;;;;;;;9.10;8.52;;;;;;;14.51;88.46;100540.81;5044611;28;20560;-75
2022/11/03 11:27:43;;;;;;;8.25;7.60;;;;;;;14.80;87.42;100529.38;5071659;28;20580;-75
2022/11/03 11:30:18;;;;;;;6.60;5.97;;;;;;;15.20;85.76;100533.31;5073521;28;20388;-75
2022/11/03 11:32:43;;;;;;;7.55;4.28;;;;;;;15.14;83.72;100531.41;5063521;28;20104;-75
2022/11/03 11:35:29;;;;;;;4.60;4.20;;;;;;;15.20;83.99;100532.50;5068004;28;20155;-75
2022/11/03 11:37:55;;;;;;;5.07;4.65;;;;;;;15.11;83.85;100525.63;5018612;28;21460;-76
2022/11/03 11:40:23;;;;;;;4.78;4.30;;;;;;;15.04;84.27;100522.09;5063679;28;20034;-75
2022/11/03 11:43:09;;;;;;;4.80;4.40;;;;;;;15.02;84.55;100516.97;5069427;28;20139;-76
2022/11/03 11:46:12;;;;;;;4.93;3.65;;;;;;;15.14;84.23;100512.00;5052399;28;20067;-75